createdAt,value
2018-02-24T00:00:28.987Z,-1.25
2018-02-24T00:01:29.036Z,-1.23
2018-02-24T00:02:29.088Z,-1.11
2018-02-24T00:03:29.139Z,-1.14
2018-02-24T00:04:29.187Z,-1.17
2018-02-24T00:05:29.238Z,-1.20
2018-02-24T00:06:29.289Z,-1.14
2018-02-24T00:07:29.338Z,-1.20
2018-02-24T00:08:29.392Z,-1.17
2018-02-24T00:09:29.438Z,-1.28
2018-02-24T00:10:29.488Z,-1.28
2018-02-24T00:11:29.539Z,-1.23
2018-02-24T00:12:29.589Z,-1.20
2018-02-24T00:13:29.640Z,-1.26
2018-02-24T00:14:29.692Z,-1.26
2018-02-24T00:15:29.740Z,-1.31
2018-02-24T00:16:29.790Z,-1.38
2018-02-24T00:17:29.840Z,-1.31
2018-02-24T00:18:29.890Z,-1.32
2018-02-24T00:19:29.941Z,-1.33
2018-02-24T00:20:29.989Z,-1.31
2018-02-24T00:21:30.040Z,-1.39
2018-02-24T00:22:30.091Z,-1.39
2018-02-24T00:23:30.141Z,-1.44
2018-02-24T00:24:30.191Z,-1.38
2018-02-24T00:25:30.240Z,-1.43
2018-02-24T00:26:30.290Z,-1.39
2018-02-24T00:27:30.341Z,-1.44
2018-02-24T00:28:30.390Z,-1.47
2018-02-24T00:29:30.440Z,-1.38
2018-02-24T00:30:30.942Z,-1.38
2018-02-24T00:31:30.542Z,-1.50
2018-02-24T00:32:30.591Z,-1.46
2018-02-24T00:33:30.644Z,-1.47
2018-02-24T00:34:30.691Z,-1.50
2018-02-24T00:35:30.741Z,-1.59
2018-02-24T00:36:30.790Z,-1.50
2018-02-24T00:37:30.844Z,-1.53
2018-02-24T00:38:30.890Z,-1.51
2018-02-24T00:39:30.941Z,-1.50
2018-02-24T00:40:30.990Z,-1.49
2018-02-24T00:41:31.041Z,-1.57
2018-02-24T00:42:31.092Z,-1.59
2018-02-24T00:43:31.140Z,-1.56
2018-02-24T00:44:31.193Z,-1.64
2018-02-24T00:45:31.242Z,-1.65
2018-02-24T00:46:31.291Z,-1.67
2018-02-24T00:47:31.343Z,-1.57
2018-02-24T00:48:31.389Z,-1.62
2018-02-24T00:49:31.439Z,-1.61
2018-02-24T00:50:31.489Z,-1.59
2018-02-24T00:51:31.540Z,-1.64
2018-02-24T00:52:31.588Z,-1.62
2018-02-24T00:53:31.639Z,-1.61
2018-02-24T00:54:31.697Z,-1.78
2018-02-24T00:55:31.761Z,-1.68
2018-02-24T00:56:31.787Z,-1.70
2018-02-24T00:57:31.841Z,-1.72
2018-02-24T00:58:31.888Z,-1.68
2018-02-24T00:59:31.959Z,-1.75
2018-02-24T01:00:31.987Z,-1.74
2018-02-24T01:01:32.056Z,-1.75
2018-02-24T01:02:32.118Z,-1.78
2018-02-24T01:03:32.137Z,-1.83
2018-02-24T01:04:32.187Z,-1.77
2018-02-24T01:05:32.259Z,-1.80
2018-02-24T01:06:32.288Z,-1.77
2018-02-24T01:07:32.336Z,-1.77
2018-02-24T01:08:32.386Z,-1.72
2018-02-24T01:09:32.434Z,-1.77
2018-02-24T01:10:32.490Z,-1.72
2018-02-24T01:11:32.535Z,-1.71
2018-02-24T01:12:32.584Z,-1.88
2018-02-24T01:13:32.634Z,-1.82
2018-02-24T01:14:32.683Z,-1.89
2018-02-24T01:15:32.735Z,-1.89
2018-02-24T01:16:32.934Z,-1.86
2018-02-24T01:17:32.839Z,-1.85
2018-02-24T01:18:32.883Z,-1.89
2018-02-24T01:19:32.933Z,-1.89
2018-02-24T01:20:32.981Z,-1.86
2018-02-24T01:21:33.032Z,-1.95
2018-02-24T01:22:33.083Z,-2.00
2018-02-24T01:23:33.132Z,-1.89
2018-02-24T01:24:33.180Z,-1.89
2018-02-24T01:25:33.233Z,-2.01
2018-02-24T01:26:33.281Z,-1.96
2018-02-24T01:27:33.330Z,-2.03
2018-02-24T01:28:33.382Z,-2.00
2018-02-24T01:29:33.430Z,-2.04
2018-02-24T01:30:33.481Z,-2.07
2018-02-24T01:31:33.528Z,-1.95
2018-02-24T01:32:33.577Z,-2.08
2018-02-24T01:33:33.629Z,-2.08
2018-02-24T01:34:33.677Z,-2.08
2018-02-24T01:35:33.727Z,-2.00
2018-02-24T01:36:33.777Z,-2.00
2018-02-24T01:37:33.825Z,-2.03
2018-02-24T01:38:33.876Z,-2.00
2018-02-24T01:39:33.924Z,-2.03
2018-02-24T01:40:33.975Z,-2.08
2018-02-24T01:41:34.024Z,-1.98
2018-02-24T01:42:34.074Z,-2.08
2018-02-24T01:43:34.124Z,-2.08
2018-02-24T01:44:34.172Z,-2.08
2018-02-24T01:45:34.221Z,-2.11
2018-02-24T01:46:34.271Z,-2.18
2018-02-24T01:47:34.320Z,-2.08
2018-02-24T01:48:34.370Z,-2.14
2018-02-24T01:49:34.420Z,-2.11
2018-02-24T01:50:34.469Z,-2.19
2018-02-24T01:51:34.520Z,-2.13
2018-02-24T01:52:34.569Z,-2.14
2018-02-24T01:53:34.618Z,-2.19
2018-02-24T01:54:34.669Z,-2.19
2018-02-24T01:55:34.717Z,-2.28
2018-02-24T01:56:34.766Z,-2.22
2018-02-24T01:57:34.815Z,-2.29
2018-02-24T01:58:34.868Z,-2.22
2018-02-24T01:59:34.914Z,-2.32
2018-02-24T02:00:34.964Z,-2.26
2018-02-24T02:01:35.015Z,-2.19
2018-02-24T02:02:35.063Z,-2.29
2018-02-24T02:03:35.115Z,-2.24
2018-02-24T02:04:35.164Z,-2.29
2018-02-24T02:05:35.214Z,-2.32
2018-02-24T02:06:35.261Z,-2.24
2018-02-24T02:07:35.310Z,-2.25
2018-02-24T02:08:35.510Z,-2.33
2018-02-24T02:09:35.408Z,-2.26
2018-02-24T02:10:35.459Z,-2.37
2018-02-24T02:11:35.508Z,-2.37
2018-02-24T02:12:35.556Z,-2.37
2018-02-24T02:13:35.608Z,-2.37
2018-02-24T02:14:35.656Z,-2.43
2018-02-24T02:15:35.705Z,-2.38
2018-02-24T02:16:35.755Z,-2.43
2018-02-24T02:17:35.808Z,-2.40
2018-02-24T02:18:35.853Z,-2.40
2018-02-24T02:19:36.054Z,-2.40
2018-02-24T02:20:35.951Z,-2.37
2018-02-24T02:21:36.002Z,-2.38
2018-02-24T02:22:36.051Z,-2.46
2018-02-24T02:23:36.101Z,-2.55
2018-02-24T02:24:36.150Z,-2.51
2018-02-24T02:25:36.244Z,-2.51
2018-02-24T02:26:36.249Z,-2.51
2018-02-24T02:27:36.297Z,-2.51
2018-02-24T02:28:36.365Z,-2.56
2018-02-24T02:29:36.397Z,-2.58
2018-02-24T02:30:36.447Z,-2.53
2018-02-24T02:31:36.497Z,-2.46
2018-02-24T02:32:36.546Z,-2.59
2018-02-24T02:33:36.593Z,-2.59
2018-02-24T02:34:36.664Z,-2.51
2018-02-24T02:35:36.694Z,-2.58
2018-02-24T02:36:36.741Z,-2.61
2018-02-24T02:37:36.789Z,-2.50
2018-02-24T02:38:36.839Z,-2.58
2018-02-24T02:39:36.892Z,-2.47
2018-02-24T02:40:36.940Z,-2.58
2018-02-24T02:41:36.987Z,-2.56
2018-02-24T02:42:37.038Z,-2.58
2018-02-24T02:43:37.087Z,-2.53
2018-02-24T02:44:37.134Z,-2.55
2018-02-24T02:45:37.185Z,-2.55
2018-02-24T02:46:37.235Z,-2.55
2018-02-24T02:47:37.283Z,-2.65
2018-02-24T02:48:37.333Z,-2.61
2018-02-24T02:49:37.382Z,-2.61
2018-02-24T02:50:37.433Z,-2.66
2018-02-24T02:51:37.486Z,-2.55
2018-02-24T02:52:37.528Z,-2.59
2018-02-24T02:53:37.579Z,-2.59
2018-02-24T02:54:37.627Z,-2.56
2018-02-24T02:55:37.676Z,-2.65
2018-02-24T02:56:37.726Z,-2.61
2018-02-24T02:57:37.776Z,-2.61
2018-02-24T02:58:37.825Z,-2.64
2018-02-24T02:59:37.877Z,-2.65
2018-02-24T03:00:37.921Z,-2.64
2018-02-24T03:01:37.977Z,-2.66
2018-02-24T03:02:38.022Z,-2.59
2018-02-24T03:03:38.071Z,-2.62
2018-02-24T03:04:38.119Z,-2.74
2018-02-24T03:05:38.170Z,-2.74
2018-02-24T03:06:38.218Z,-2.58
2018-02-24T03:07:38.266Z,-2.64
2018-02-24T03:08:38.316Z,-2.79
2018-02-24T03:09:38.366Z,-2.71
2018-02-24T03:10:38.413Z,-2.62
2018-02-24T03:11:38.464Z,-2.72
2018-02-24T03:12:38.512Z,-2.65
2018-02-24T03:13:38.562Z,-2.69
2018-02-24T03:14:38.610Z,-2.68
2018-02-24T03:15:38.662Z,-2.72
2018-02-24T03:16:38.707Z,-2.64
2018-02-24T03:17:38.759Z,-2.76
2018-02-24T03:18:38.808Z,-2.82
2018-02-24T03:19:38.855Z,-2.83
2018-02-24T03:20:38.904Z,-2.80
2018-02-24T03:21:38.953Z,-2.84
2018-02-24T03:22:39.003Z,-2.77
2018-02-24T03:23:39.051Z,-2.74
2018-02-24T03:24:39.104Z,-2.76
2018-02-24T03:25:39.149Z,-2.76
2018-02-24T03:26:39.198Z,-2.77
2018-02-24T03:27:39.270Z,-2.71
2018-02-24T03:28:39.297Z,-2.83
2018-02-24T03:29:39.346Z,-2.76
2018-02-24T03:30:39.395Z,-2.76
2018-02-24T03:31:39.444Z,-2.74
2018-02-24T03:32:39.492Z,-2.83
2018-02-24T03:33:39.930Z,-2.83
2018-02-24T03:34:39.590Z,-2.76
2018-02-24T03:35:39.640Z,-2.82
2018-02-24T03:36:39.694Z,-2.80
2018-02-24T03:37:39.738Z,-2.72
2018-02-24T03:38:39.787Z,-2.80
2018-02-24T03:39:39.835Z,-2.79
2018-02-24T03:40:39.884Z,-2.79
2018-02-24T03:41:39.933Z,-2.94
2018-02-24T03:42:39.982Z,-2.94
2018-02-24T03:43:40.032Z,-2.95
2018-02-24T03:44:40.084Z,-2.93
2018-02-24T03:45:40.133Z,-2.94
2018-02-24T03:46:40.179Z,-2.87
2018-02-24T03:47:40.227Z,-2.89
2018-02-24T03:48:40.280Z,-2.98
2018-02-24T03:49:40.325Z,-2.98
2018-02-24T03:50:40.375Z,-2.94
2018-02-24T03:51:40.426Z,-2.97
2018-02-24T03:52:40.473Z,-2.93
2018-02-24T03:53:40.522Z,-2.98
2018-02-24T03:54:40.570Z,-3.02
2018-02-24T03:55:40.620Z,-3.04
2018-02-24T03:56:40.668Z,-3.02
2018-02-24T03:57:40.871Z,-3.05
2018-02-24T03:58:40.768Z,-3.12
2018-02-24T03:59:40.815Z,-3.18
2018-02-24T04:00:40.866Z,-3.26
2018-02-24T04:01:40.913Z,-3.22
2018-02-24T04:02:40.962Z,-3.23
2018-02-24T04:03:41.011Z,-3.22
2018-02-24T04:04:41.068Z,-3.26
2018-02-24T04:05:41.110Z,-3.21
2018-02-24T04:06:41.158Z,-3.19
2018-02-24T04:07:41.208Z,-3.07
2018-02-24T04:08:41.256Z,-3.10
2018-02-24T04:09:41.304Z,-3.18
2018-02-24T04:10:41.354Z,-3.21
2018-02-24T04:11:41.404Z,-3.10
2018-02-24T04:12:41.453Z,-3.12
2018-02-24T04:13:41.500Z,-3.07
2018-02-24T04:14:41.550Z,-3.04
2018-02-24T04:15:41.600Z,-3.05
2018-02-24T04:16:41.648Z,-3.12
2018-02-24T04:17:41.697Z,-3.12
2018-02-24T04:18:41.746Z,-3.21
2018-02-24T04:19:41.797Z,-3.19
2018-02-24T04:20:41.993Z,-3.08
2018-02-24T04:21:41.893Z,-3.28
2018-02-24T04:22:41.943Z,-3.22
2018-02-24T04:23:41.991Z,-3.13
2018-02-24T04:24:42.042Z,-3.25
2018-02-24T04:25:42.239Z,-3.21
2018-02-24T04:26:42.137Z,-3.13
2018-02-24T04:27:42.186Z,-3.15
2018-02-24T04:28:42.250Z,-3.16
2018-02-24T04:29:42.284Z,-3.16
2018-02-24T04:30:42.332Z,-3.12
2018-02-24T04:31:42.383Z,-3.18
2018-02-24T04:32:42.431Z,-3.19
2018-02-24T04:33:42.480Z,-3.23
2018-02-24T04:34:42.527Z,-3.10
2018-02-24T04:35:42.577Z,-3.05
2018-02-24T04:36:42.626Z,-3.00
2018-02-24T04:37:42.925Z,-3.00
2018-02-24T04:38:42.723Z,-3.02
2018-02-24T04:39:42.774Z,-3.04
2018-02-24T04:40:42.821Z,-3.05
2018-02-24T04:41:42.869Z,-3.05
2018-02-24T04:42:42.919Z,-3.01
2018-02-24T04:43:42.970Z,-3.01
2018-02-24T04:44:43.017Z,-3.00
2018-02-24T04:45:43.066Z,-3.08
2018-02-24T04:46:43.114Z,-3.01
2018-02-24T04:47:43.164Z,-3.02
2018-02-24T04:48:43.413Z,-3.07
2018-02-24T04:49:43.261Z,-3.04
2018-02-24T04:50:43.308Z,-3.07
2018-02-24T04:51:43.358Z,-3.05
2018-02-24T04:52:43.404Z,-3.08
2018-02-24T04:53:43.454Z,-3.02
2018-02-24T04:54:43.504Z,-3.05
2018-02-24T04:55:43.552Z,-3.08
2018-02-24T04:56:43.600Z,-3.13
2018-02-24T04:57:43.649Z,-3.05
2018-02-24T04:58:43.698Z,-3.13
2018-02-24T04:59:43.746Z,-3.21
2018-02-24T05:00:43.800Z,-3.21
2018-02-24T05:01:43.844Z,-3.12
2018-02-24T05:02:43.892Z,-3.25
2018-02-24T05:03:43.942Z,-3.33
2018-02-24T05:04:43.989Z,-3.22
2018-02-24T05:05:44.290Z,-3.08
2018-02-24T05:06:44.087Z,-3.23
2018-02-24T05:07:44.137Z,-3.23
2018-02-24T05:08:44.184Z,-3.26
2018-02-24T05:09:44.233Z,-3.21
2018-02-24T05:10:44.281Z,-3.12
2018-02-24T05:11:44.931Z,-3.23
2018-02-24T05:12:44.380Z,-3.08
2018-02-24T05:13:44.427Z,-3.23
2018-02-24T05:14:44.476Z,-3.25
2018-02-24T05:15:44.529Z,-3.22
2018-02-24T05:16:44.574Z,-3.15
2018-02-24T05:17:44.622Z,-3.18
2018-02-24T05:18:44.672Z,-3.08
2018-02-24T05:19:44.721Z,-3.21
2018-02-24T05:20:44.769Z,-3.10
2018-02-24T05:21:44.817Z,-3.12
2018-02-24T05:22:44.870Z,-3.10
2018-02-24T05:23:44.914Z,-3.16
2018-02-24T05:24:44.963Z,-3.22
2018-02-24T05:25:45.012Z,-3.18
2018-02-24T05:26:45.061Z,-3.28
2018-02-24T05:27:45.110Z,-3.25
2018-02-24T05:28:45.158Z,-3.15
2018-02-24T05:29:45.206Z,-3.22
2018-02-24T05:30:45.254Z,-3.34
2018-02-24T05:31:45.323Z,-3.07
2018-02-24T05:32:45.352Z,-3.22
2018-02-24T05:33:45.401Z,-3.21
2018-02-24T05:34:45.450Z,-3.18
2018-02-24T05:35:45.498Z,-3.19
2018-02-24T05:36:45.547Z,-3.08
2018-02-24T05:37:45.596Z,-3.21
2018-02-24T05:38:45.644Z,-3.15
2018-02-24T05:39:45.693Z,-3.12
2018-02-24T05:40:45.741Z,-3.18
2018-02-24T05:41:45.790Z,-3.18
2018-02-24T05:42:45.838Z,-3.26
2018-02-24T05:43:45.888Z,-3.25
2018-02-24T05:44:45.935Z,-3.25
2018-02-24T05:45:46.236Z,-3.25
2018-02-24T05:46:46.034Z,-3.28
2018-02-24T05:47:46.081Z,-3.28
2018-02-24T05:48:46.129Z,-3.22
2018-02-24T05:49:46.179Z,-3.28
2018-02-24T05:50:46.228Z,-3.41
2018-02-24T05:51:46.276Z,-3.33
2018-02-24T05:52:46.323Z,-3.26
2018-02-24T05:53:46.372Z,-3.25
2018-02-24T05:54:46.420Z,-3.25
2018-02-24T05:55:46.470Z,-3.13
2018-02-24T05:56:46.569Z,-3.25
2018-02-24T05:57:46.566Z,-3.25
2018-02-24T05:58:46.616Z,-3.21
2018-02-24T05:59:46.672Z,-3.25
2018-02-24T06:00:46.713Z,-3.26
2018-02-24T06:01:46.761Z,-3.23
2018-02-24T06:02:46.810Z,-3.22
2018-02-24T06:03:46.861Z,-3.23
2018-02-24T06:04:46.907Z,-3.18
2018-02-24T06:05:46.954Z,-3.19
2018-02-24T06:06:47.006Z,-3.23
2018-02-24T06:07:47.254Z,-3.16
2018-02-24T06:08:47.100Z,-3.28
2018-02-24T06:09:47.150Z,-3.13
2018-02-24T06:10:47.204Z,-3.13
2018-02-24T06:11:47.248Z,-3.08
2018-02-24T06:12:47.295Z,-3.15
2018-02-24T06:13:47.343Z,-3.16
2018-02-24T06:14:47.392Z,-3.16
2018-02-24T06:15:47.448Z,-3.22
2018-02-24T06:16:47.488Z,-3.21
2018-02-24T06:17:47.543Z,-3.13
2018-02-24T06:18:47.587Z,-3.13
2018-02-24T06:19:47.636Z,-3.23
2018-02-24T06:20:47.682Z,-3.19
2018-02-24T06:21:47.732Z,-3.22
2018-02-24T06:22:47.780Z,-3.25
2018-02-24T06:23:47.843Z,-3.26
2018-02-24T06:24:47.878Z,-3.30
2018-02-24T06:25:47.926Z,-3.26
2018-02-24T06:26:47.975Z,-3.31
2018-02-24T06:27:48.347Z,-3.16
2018-02-24T06:28:48.070Z,-3.30
2018-02-24T06:29:48.119Z,-3.23
2018-02-24T06:30:48.168Z,-3.25
2018-02-24T06:31:48.233Z,-3.25
2018-02-24T06:32:48.265Z,-3.21
2018-02-24T06:33:48.313Z,-3.26
2018-02-24T06:34:48.362Z,-3.33
2018-02-24T06:35:48.411Z,-3.26
2018-02-24T06:36:48.460Z,-3.30
2018-02-24T06:37:48.509Z,-3.25
2018-02-24T06:38:48.557Z,-3.23
2018-02-24T06:39:48.605Z,-3.22
2018-02-24T06:40:48.655Z,-3.26
2018-02-24T06:41:48.702Z,-3.31
2018-02-24T06:42:48.750Z,-3.25
2018-02-24T06:43:48.799Z,-3.22
2018-02-24T06:44:48.849Z,-3.25
2018-02-24T06:45:48.895Z,-3.25
2018-02-24T06:46:48.944Z,-3.28
2018-02-24T06:47:48.993Z,-3.31
2018-02-24T06:48:49.085Z,-3.31
2018-02-24T06:49:49.089Z,-3.26
2018-02-24T06:50:49.138Z,-3.26
2018-02-24T06:51:49.189Z,-3.37
2018-02-24T06:52:49.235Z,-3.31
2018-02-24T06:53:49.800Z,-3.31
2018-02-24T06:54:49.332Z,-3.33
2018-02-24T06:55:49.383Z,-3.36
2018-02-24T06:56:49.430Z,-3.37
2018-02-24T06:57:49.480Z,-3.34
2018-02-24T06:58:49.527Z,-3.39
2018-02-24T06:59:49.577Z,-3.33
2018-02-24T07:00:49.625Z,-3.36
2018-02-24T07:01:49.673Z,-3.36
2018-02-24T07:02:49.721Z,-3.36
2018-02-24T07:03:49.773Z,-3.22
2018-02-24T07:04:49.818Z,-3.21
2018-02-24T07:05:49.867Z,-3.25
2018-02-24T07:06:49.917Z,-3.30
2018-02-24T07:07:49.966Z,-3.25
2018-02-24T07:08:50.013Z,-3.25
2018-02-24T07:09:50.064Z,-3.22
2018-02-24T07:10:50.114Z,-3.26
2018-02-24T07:11:50.161Z,-3.25
2018-02-24T07:12:50.209Z,-3.21
2018-02-24T07:13:50.257Z,-3.28
2018-02-24T07:14:50.308Z,-3.25
2018-02-24T07:15:50.354Z,-3.23
2018-02-24T07:16:50.403Z,-3.33
2018-02-24T07:17:50.454Z,-3.28
2018-02-24T07:18:50.510Z,-3.22
2018-02-24T07:19:50.551Z,-3.16
2018-02-24T07:20:50.598Z,-3.28
2018-02-24T07:21:50.650Z,-3.13
2018-02-24T07:22:50.696Z,-3.18
2018-02-24T07:23:50.746Z,-3.21
2018-02-24T07:24:50.794Z,-3.08
2018-02-24T07:25:50.842Z,-2.95
2018-02-24T07:26:50.893Z,-3.01
2018-02-24T07:27:51.142Z,-3.00
2018-02-24T07:28:50.994Z,-3.08
2018-02-24T07:29:51.040Z,-3.01
2018-02-24T07:30:51.087Z,-3.01
2018-02-24T07:31:51.137Z,-2.98
2018-02-24T07:32:51.185Z,-3.02
2018-02-24T07:33:51.235Z,-3.07
2018-02-24T07:34:51.283Z,-3.04
2018-02-24T07:35:51.332Z,-3.05
2018-02-24T07:36:51.382Z,-3.04
2018-02-24T07:37:51.431Z,-2.97
2018-02-24T07:38:51.481Z,-2.97
2018-02-24T07:39:51.530Z,-2.93
2018-02-24T07:40:51.581Z,-2.94
2018-02-24T07:41:51.627Z,-2.98
2018-02-24T07:42:51.676Z,-2.90
2018-02-24T07:43:51.726Z,-2.89
2018-02-24T07:44:51.774Z,-2.93
2018-02-24T07:45:51.827Z,-2.82
2018-02-24T07:46:51.907Z,-2.79
2018-02-24T07:47:51.924Z,-2.65
2018-02-24T07:48:51.972Z,-2.72
2018-02-24T07:49:52.022Z,-2.68
2018-02-24T07:50:52.071Z,-2.65
2018-02-24T07:51:52.121Z,-2.55
2018-02-24T07:52:52.173Z,-2.59
2018-02-24T07:53:52.218Z,-2.62
2018-02-24T07:54:52.268Z,-2.53
2018-02-24T07:55:52.318Z,-2.48
2018-02-24T07:56:52.366Z,-2.51
2018-02-24T07:57:52.418Z,-2.37
2018-02-24T07:58:52.466Z,-2.51
2018-02-24T07:59:52.515Z,-2.35
2018-02-24T08:00:52.566Z,-2.43
2018-02-24T08:01:52.615Z,-2.37
2018-02-24T08:02:52.664Z,-2.29
2018-02-24T08:03:52.715Z,-2.25
2018-02-24T08:04:52.763Z,-2.25
2018-02-24T08:05:52.815Z,-2.19
2018-02-24T08:06:52.864Z,-2.24
2018-02-24T08:07:53.115Z,-2.18
2018-02-24T08:08:52.962Z,-2.21
2018-02-24T08:09:53.660Z,-2.10
2018-02-24T08:10:53.063Z,-2.13
2018-02-24T08:11:53.116Z,-2.14
2018-02-24T08:12:53.162Z,-2.08
2018-02-24T08:13:53.212Z,-2.14
2018-02-24T08:14:53.263Z,-2.04
2018-02-24T08:15:53.311Z,-1.93
2018-02-24T08:16:54.041Z,-2.00
2018-02-24T08:17:53.413Z,-1.83
2018-02-24T08:18:53.462Z,-1.86
2018-02-24T08:19:53.513Z,-1.86
2018-02-24T08:20:53.561Z,-1.78
2018-02-24T08:21:53.610Z,-1.82
2018-02-24T08:22:53.663Z,-1.78
2018-02-24T08:23:53.714Z,-1.71
2018-02-24T08:24:53.761Z,-1.75
2018-02-24T08:25:53.811Z,-1.67
2018-02-24T08:26:53.863Z,-1.57
2018-02-24T08:27:53.926Z,-1.50
2018-02-24T08:28:53.963Z,-1.49
2018-02-24T08:29:54.031Z,-1.46
2018-02-24T08:30:54.064Z,-1.38
2018-02-24T08:31:54.118Z,-1.50
2018-02-24T08:32:54.198Z,-1.41
2018-02-24T08:33:54.215Z,-1.41
2018-02-24T08:34:54.264Z,-1.41
2018-02-24T08:35:54.315Z,-1.21
2018-02-24T08:36:54.365Z,-1.31
2018-02-24T08:37:54.415Z,-1.15
2018-02-24T08:38:54.466Z,-1.14
2018-02-24T08:39:54.518Z,-1.11
2018-02-24T08:40:54.567Z,-1.02
2018-02-24T08:41:54.617Z,-0.93
2018-02-24T08:42:54.673Z,-0.93
2018-02-24T08:43:54.722Z,-0.80
2018-02-24T08:44:55.407Z,-0.93
2018-02-24T08:45:54.820Z,-0.81
2018-02-24T08:46:55.021Z,-0.85
2018-02-24T08:47:54.923Z,-0.92
2018-02-24T08:48:54.972Z,-0.89
2018-02-24T08:49:55.026Z,-0.89
2018-02-24T08:50:55.074Z,-0.77
2018-02-24T08:51:55.125Z,-0.74
2018-02-24T08:52:55.175Z,-0.76
2018-02-24T08:53:55.227Z,-0.77
2018-02-24T08:54:55.276Z,-0.77
2018-02-24T08:55:55.329Z,-0.67
2018-02-24T08:56:55.380Z,-0.67
2018-02-24T08:57:55.429Z,-0.65
2018-02-24T08:58:55.482Z,-0.62
2018-02-24T08:59:55.532Z,-0.59
2018-02-24T09:00:55.583Z,-0.60
2018-02-24T09:01:55.633Z,-0.45
2018-02-24T09:02:56.385Z,-0.47
2018-02-24T09:03:55.737Z,-0.39
2018-02-24T09:04:55.787Z,-0.38
2018-02-24T09:05:55.838Z,-0.49
2018-02-24T09:06:55.889Z,-0.41
2018-02-24T09:07:55.940Z,-0.32
2018-02-24T09:08:55.992Z,-0.34
2018-02-24T09:09:56.043Z,-0.23
2018-02-24T09:10:56.097Z,-0.42
2018-02-24T09:11:56.153Z,-0.39
2018-02-24T09:12:56.196Z,-0.35
2018-02-24T09:13:56.248Z,-0.30
2018-02-24T09:14:56.301Z,-0.16
2018-02-24T09:15:56.356Z,-0.09
2018-02-24T09:16:56.403Z,0.04
2018-02-24T09:17:56.454Z,-0.12
2018-02-24T09:18:56.506Z,-0.02
2018-02-24T09:19:56.557Z,-0.09
2018-02-24T09:20:56.608Z,-0.06
2018-02-24T09:21:56.658Z,0.05
2018-02-24T09:22:56.710Z,0.04
2018-02-24T09:23:56.768Z,0.07
2018-02-24T09:24:56.813Z,0.15
2018-02-24T09:25:57.069Z,0.23
2018-02-24T09:26:56.928Z,0.30
2018-02-24T09:27:56.968Z,0.38
2018-02-24T09:28:57.021Z,0.33
2018-02-24T09:29:57.072Z,0.38
2018-02-24T09:30:57.122Z,0.41
2018-02-24T09:31:57.194Z,0.43
2018-02-24T09:32:57.227Z,0.49
2018-02-24T09:33:57.278Z,0.63
2018-02-24T09:34:57.329Z,0.71
2018-02-24T09:35:58.047Z,0.64
2018-02-24T09:36:57.433Z,0.62
2018-02-24T09:37:57.484Z,0.57
2018-02-24T09:38:57.556Z,0.44
2018-02-24T09:39:57.590Z,0.34
2018-02-24T09:40:57.640Z,0.43
2018-02-24T09:41:57.693Z,0.52
2018-02-24T09:42:57.749Z,0.59
2018-02-24T09:43:57.800Z,0.48
2018-02-24T09:44:57.850Z,0.45
2018-02-24T09:45:57.901Z,0.53
2018-02-24T09:46:58.555Z,0.48
2018-02-24T09:47:58.840Z,0.63
2018-02-24T09:48:58.055Z,0.63
2018-02-24T09:49:58.107Z,0.70
2018-02-24T09:50:58.163Z,0.78
2018-02-24T09:51:59.027Z,0.82
2018-02-24T09:52:58.907Z,0.99
2018-02-24T09:53:58.316Z,1.00
2018-02-24T09:54:58.370Z,1.00
2018-02-24T09:55:59.006Z,1.13
2018-02-24T09:56:58.474Z,0.95
2018-02-24T09:57:59.119Z,0.92
2018-02-24T09:58:58.577Z,1.08
2018-02-24T09:59:58.632Z,1.14
2018-02-24T10:00:58.682Z,1.02
2018-02-24T10:01:58.734Z,1.21
2018-02-24T10:02:58.787Z,1.25
2018-02-24T10:03:58.839Z,1.31
2018-02-24T10:04:58.892Z,1.31
2018-02-24T10:05:58.944Z,1.31
2018-02-24T10:06:58.997Z,1.42
2018-02-24T10:07:59.048Z,1.42
2018-02-24T10:08:59.101Z,1.49
2018-02-24T10:09:59.153Z,1.60
2018-02-24T10:10:59.207Z,1.60
2018-02-24T10:11:59.259Z,1.68
2018-02-24T10:12:59.311Z,1.64
2018-02-24T10:13:59.767Z,1.71
2018-02-24T10:14:59.423Z,1.75
2018-02-24T10:15:59.470Z,1.72
2018-02-24T10:16:59.672Z,1.86
2018-02-24T10:17:59.573Z,1.90
2018-02-24T10:18:59.660Z,1.89
2018-02-24T10:19:59.681Z,1.72
2018-02-24T10:20:59.732Z,1.88
2018-02-24T10:21:59.786Z,1.85
2018-02-24T10:22:59.843Z,1.85
2018-02-24T10:24:00.483Z,1.88
2018-02-24T10:24:59.961Z,1.90
2018-02-24T10:25:59.999Z,2.11
2018-02-24T10:27:00.050Z,2.12
2018-02-24T10:28:00.103Z,2.14
2018-02-24T10:29:00.156Z,2.12
2018-02-24T10:30:00.208Z,2.29
2018-02-24T10:31:00.262Z,2.32
2018-02-24T10:32:00.317Z,2.32
2018-02-24T10:33:00.367Z,2.33
2018-02-24T10:34:00.580Z,2.40
2018-02-24T10:35:00.474Z,2.36
2018-02-24T10:36:00.529Z,2.45
2018-02-24T10:37:00.581Z,2.41
2018-02-24T10:38:00.634Z,2.41
2018-02-24T10:39:00.690Z,2.40
2018-02-24T10:40:00.741Z,2.40
2018-02-24T10:41:00.794Z,2.45
2018-02-24T10:42:00.848Z,2.43
2018-02-24T10:43:00.901Z,2.61
2018-02-24T10:44:00.954Z,2.65
2018-02-24T10:45:01.007Z,2.69
2018-02-24T10:46:01.063Z,2.76
2018-02-24T10:47:01.114Z,2.89
2018-02-24T10:48:01.168Z,2.79
2018-02-24T10:49:01.222Z,2.89
2018-02-24T10:50:01.275Z,2.86
2018-02-24T10:51:01.328Z,2.84
2018-02-24T10:52:01.383Z,2.97
2018-02-24T10:53:01.435Z,3.05
2018-02-24T10:54:01.489Z,2.99
2018-02-24T10:55:01.547Z,3.15
2018-02-24T10:56:01.597Z,3.16
2018-02-24T10:57:01.649Z,3.33
2018-02-24T10:58:01.703Z,3.28
2018-02-24T10:59:01.771Z,3.23
2018-02-24T11:00:01.828Z,3.28
2018-02-24T11:01:02.353Z,3.44
2018-02-24T11:02:01.934Z,3.56
2018-02-24T11:03:01.972Z,3.59
2018-02-24T11:04:02.026Z,3.53
2018-02-24T11:05:02.079Z,3.56
2018-02-24T11:06:02.134Z,3.60
2018-02-24T11:07:02.188Z,3.64
2018-02-24T11:08:02.242Z,3.74
2018-02-24T11:09:02.295Z,3.78
2018-02-24T11:10:02.670Z,3.75
2018-02-24T11:11:02.406Z,3.81
2018-02-24T11:12:03.207Z,3.68
2018-02-24T11:13:02.511Z,3.82
2018-02-24T11:14:03.065Z,3.90
2018-02-24T11:15:02.619Z,3.86
2018-02-24T11:16:02.674Z,3.98
2018-02-24T11:17:02.731Z,3.98
2018-02-24T11:18:02.783Z,3.98
2018-02-24T11:19:02.837Z,4.00
2018-02-24T11:20:03.141Z,4.17
2018-02-24T11:21:02.945Z,4.11
2018-02-24T11:22:03.000Z,4.13
2018-02-24T11:23:03.053Z,4.02
2018-02-24T11:24:03.108Z,4.16
2018-02-24T11:25:03.161Z,4.26
2018-02-24T11:26:03.217Z,4.42
2018-02-24T11:27:03.273Z,4.51
2018-02-24T11:28:03.325Z,4.57
2018-02-24T11:29:03.381Z,4.64
2018-02-24T11:30:03.435Z,4.38
2018-02-24T11:31:03.490Z,4.64
2018-02-24T11:32:03.547Z,4.83
2018-02-24T11:33:03.601Z,4.83
2018-02-24T11:34:03.657Z,5.15
2018-02-24T11:35:03.715Z,5.59
2018-02-24T11:36:03.828Z,5.74
2018-02-24T11:37:03.824Z,6.36
2018-02-24T11:38:03.881Z,6.81
2018-02-24T11:39:03.937Z,7.39
2018-02-24T11:40:03.996Z,7.55
2018-02-24T11:41:04.052Z,7.52
2018-02-24T11:42:04.110Z,6.83
2018-02-24T11:43:04.168Z,6.54
2018-02-24T11:44:04.224Z,6.83
2018-02-24T11:45:04.282Z,7.85
2018-02-24T11:46:04.340Z,7.50
2018-02-24T11:47:04.398Z,6.93
2018-02-24T11:48:04.457Z,7.69
2018-02-24T11:49:05.002Z,7.14
2018-02-24T11:50:04.574Z,7.24
2018-02-24T11:51:04.634Z,6.93
2018-02-24T11:52:04.694Z,7.08
2018-02-24T11:53:05.002Z,7.08
2018-02-24T11:54:04.815Z,6.55
2018-02-24T11:55:04.869Z,7.29
2018-02-24T11:56:04.930Z,7.47
2018-02-24T11:57:04.988Z,7.32
2018-02-24T11:58:05.048Z,7.55
2018-02-24T11:59:05.106Z,7.36
2018-02-24T12:00:05.167Z,7.07
2018-02-24T12:01:05.223Z,7.69
2018-02-24T12:02:05.285Z,7.77
2018-02-24T12:03:05.346Z,7.01
2018-02-24T12:04:05.404Z,6.55
2018-02-24T12:05:05.465Z,7.05
2018-02-24T12:06:05.522Z,7.23
2018-02-24T12:07:05.582Z,7.92
2018-02-24T12:08:05.640Z,7.37
2018-02-24T12:09:05.702Z,7.07
2018-02-24T12:10:05.758Z,7.62
2018-02-24T12:11:05.818Z,7.63
2018-02-24T12:12:05.878Z,7.09
2018-02-24T12:13:05.937Z,7.77
2018-02-24T12:14:05.996Z,8.32
2018-02-24T12:15:06.057Z,7.85
2018-02-24T12:16:06.116Z,7.24
2018-02-24T12:17:06.176Z,7.23
2018-02-24T12:18:06.234Z,6.83
2018-02-24T12:19:06.293Z,7.86
2018-02-24T12:20:06.355Z,7.48
2018-02-24T12:21:06.413Z,7.54
2018-02-24T12:22:06.473Z,8.36
2018-02-24T12:23:06.531Z,7.81
2018-02-24T12:24:06.591Z,7.51
2018-02-24T12:25:06.650Z,7.91
2018-02-24T12:26:06.710Z,8.24
2018-02-24T12:27:06.776Z,8.52
2018-02-24T12:28:06.834Z,8.29
2018-02-24T12:29:06.889Z,7.58
2018-02-24T12:30:06.949Z,7.39
2018-02-24T12:31:07.009Z,8.06
2018-02-24T12:32:07.068Z,8.14
2018-02-24T12:33:07.126Z,8.37
2018-02-24T12:34:07.187Z,8.37
2018-02-24T12:35:07.246Z,8.27
2018-02-24T12:36:07.306Z,9.01
2018-02-24T12:37:07.364Z,8.91
2018-02-24T12:38:07.425Z,8.18
2018-02-24T12:39:07.486Z,8.58
2018-02-24T12:40:07.545Z,8.68
2018-02-24T12:41:07.604Z,9.12
2018-02-24T12:42:07.665Z,8.68
2018-02-24T12:43:07.726Z,8.32
2018-02-24T12:44:07.784Z,7.88
2018-02-24T12:45:07.845Z,7.73
2018-02-24T12:46:07.903Z,7.34
2018-02-24T12:47:07.965Z,7.82
2018-02-24T12:48:08.025Z,7.79
2018-02-24T12:49:08.083Z,7.99
2018-02-24T12:50:08.143Z,8.04
2018-02-24T12:51:08.205Z,7.82
2018-02-24T12:52:08.263Z,8.00
2018-02-24T12:53:08.325Z,7.62
2018-02-24T12:54:08.383Z,7.69
2018-02-24T12:55:08.444Z,7.54
2018-02-24T12:56:08.753Z,7.62
2018-02-24T12:57:08.563Z,7.84
2018-02-24T12:58:08.622Z,8.32
2018-02-24T12:59:08.690Z,8.96
2018-02-24T13:00:08.741Z,8.58